sensor_id;sensor_type;location;lat;lon;timestamp;temperature;humidity
37868;DHT22;24011;48.880;9.190;2022-11-09T00:04:09;23.40;39.30
37868;DHT22;24011;48.880;9.190;2022-11-09T00:08:15;23.40;39.30
37868;DHT22;24011;48.880;9.190;2022-11-09T00:12:27;23.40;39.30
37868;DHT22;24011;48.880;9.190;2022-11-09T00:16:45;23.40;39.30
37868;DHT22;24011;48.880;9.190;2022-11-09T00:20:57;23.40;39.40
37868;DHT22;24011;48.880;9.190;2022-11-09T00:32:57;23.40;39.40
37868;DHT22;24011;48.880;9.190;2022-11-09T00:37:12;23.40;39.40
37868;DHT22;24011;48.880;9.190;2022-11-09T00:41:03;23.40;39.40
37868;DHT22;24011;48.880;9.190;2022-11-09T00:45:15;23.40;39.40
37868;DHT22;24011;48.880;9.190;2022-11-09T01:05:45;23.40;39.50
37868;DHT22;24011;48.880;9.190;2022-11-09T01:09:13;23.40;39.50
37868;DHT22;24011;48.880;9.190;2022-11-09T01:12:44;23.40;39.50
37868;DHT22;24011;48.880;9.190;2022-11-09T01:16:14;23.40;39.60
37868;DHT22;24011;48.880;9.190;2022-11-09T01:19:39;23.40;39.50
37868;DHT22;24011;48.880;9.190;2022-11-09T01:23:16;23.40;39.60
37868;DHT22;24011;48.880;9.190;2022-11-09T01:26:50;23.30;39.60
37868;DHT22;24011;48.880;9.190;2022-11-09T01:30:14;23.40;39.60
37868;DHT22;24011;48.880;9.190;2022-11-09T01:33:50;23.40;39.60
37868;DHT22;24011;48.880;9.190;2022-11-09T01:37:14;23.40;39.60
37868;DHT22;24011;48.880;9.190;2022-11-09T01:40:52;23.40;39.60
37868;DHT22;24011;48.880;9.190;2022-11-09T01:44:14;23.40;39.60
37868;DHT22;24011;48.880;9.190;2022-11-09T01:47:44;23.40;39.60
37868;DHT22;24011;48.880;9.190;2022-11-09T01:51:14;23.40;39.60
37868;DHT22;24011;48.880;9.190;2022-11-09T01:54:45;23.40;39.60
37868;DHT22;24011;48.880;9.190;2022-11-09T01:58:22;23.40;39.70
37868;DHT22;24011;48.880;9.190;2022-11-09T02:01:56;23.30;39.60
37868;DHT22;24011;48.880;9.190;2022-11-09T02:05:23;23.30;39.70
37868;DHT22;24011;48.880;9.190;2022-11-09T02:08:57;23.40;39.70
37868;DHT22;24011;48.880;9.190;2022-11-09T02:12:26;23.30;39.70
37868;DHT22;24011;48.880;9.190;2022-11-09T02:15:46;23.30;39.80
37868;DHT22;24011;48.880;9.190;2022-11-09T02:19:14;23.30;39.80
37868;DHT22;24011;48.880;9.190;2022-11-09T02:22:52;23.30;39.70
37868;DHT22;24011;48.880;9.190;2022-11-09T02:26:17;23.30;39.70
37868;DHT22;24011;48.880;9.190;2022-11-09T02:29:50;23.30;39.70
37868;DHT22;24011;48.880;9.190;2022-11-09T02:33:14;23.30;39.70
37868;DHT22;24011;48.880;9.190;2022-11-09T02:36:44;23.30;39.70
37868;DHT22;24011;48.880;9.190;2022-11-09T02:40:21;23.30;39.70
37868;DHT22;24011;48.880;9.190;2022-11-09T02:43:52;23.30;39.80
37868;DHT22;24011;48.880;9.190;2022-11-09T02:47:02;23.30;39.80
37868;DHT22;24011;48.880;9.190;2022-11-09T02:50:28;23.30;39.80
37868;DHT22;24011;48.880;9.190;2022-11-09T02:54:02;23.30;39.80
37868;DHT22;24011;48.880;9.190;2022-11-09T02:57:34;23.30;39.70
37868;DHT22;24011;48.880;9.190;2022-11-09T03:01:03;23.30;39.80
37868;DHT22;24011;48.880;9.190;2022-11-09T03:04:24;23.30;39.80
37868;DHT22;24011;48.880;9.190;2022-11-09T03:07:22;23.30;39.80
37868;DHT22;24011;48.880;9.190;2022-11-09T03:10:57;23.30;39.80
37868;DHT22;24011;48.880;9.190;2022-11-09T03:14:27;23.30;39.80
37868;DHT22;24011;48.880;9.190;2022-11-09T03:17:46;23.30;39.80
37868;DHT22;24011;48.880;9.190;2022-11-09T03:21:17;23.30;39.80
37868;DHT22;24011;48.880;9.190;2022-11-09T03:25:05;23.30;39.90
37868;DHT22;24011;48.880;9.190;2022-11-09T03:28:27;23.30;39.90
37868;DHT22;24011;48.880;9.190;2022-11-09T03:31:59;23.30;39.90
37868;DHT22;24011;48.880;9.190;2022-11-09T03:35:21;23.30;39.90
37868;DHT22;24011;48.880;9.190;2022-11-09T03:38:51;23.30;39.80
37868;DHT22;24011;48.880;9.190;2022-11-09T03:42:15;23.30;39.90
37868;DHT22;24011;48.880;9.190;2022-11-09T03:45:45;23.30;39.90
37868;DHT22;24011;48.880;9.190;2022-11-09T03:49:17;23.30;39.90
37868;DHT22;24011;48.880;9.190;2022-11-09T03:53:18;23.30;39.90
37868;DHT22;24011;48.880;9.190;2022-11-09T03:57:21;23.30;39.90
37868;DHT22;24011;48.880;9.190;2022-11-09T04:01:33;23.30;40.00
37868;DHT22;24011;48.880;9.190;2022-11-09T04:05:26;23.30;40.00
37868;DHT22;24011;48.880;9.190;2022-11-09T04:09:21;23.30;39.90
37868;DHT22;24011;48.880;9.190;2022-11-09T04:13:21;23.40;39.80
37868;DHT22;24011;48.880;9.190;2022-11-09T04:17:21;23.30;39.80
37868;DHT22;24011;48.880;9.190;2022-11-09T04:21:15;23.30;40.00
37868;DHT22;24011;48.880;9.190;2022-11-09T04:25:19;23.30;40.00
37868;DHT22;24011;48.880;9.190;2022-11-09T04:29:03;23.30;40.10
37868;DHT22;24011;48.880;9.190;2022-11-09T04:33:33;23.30;40.20
37868;DHT22;24011;48.880;9.190;2022-11-09T04:49:09;23.30;40.40
37868;DHT22;24011;48.880;9.190;2022-11-09T04:52:39;23.30;40.40
37868;DHT22;24011;48.880;9.190;2022-11-09T04:56:04;23.30;40.50
37868;DHT22;24011;48.880;9.190;2022-11-09T04:59:40;23.30;40.50
37868;DHT22;24011;48.880;9.190;2022-11-09T05:21:04;23.20;40.70
37868;DHT22;24011;48.880;9.190;2022-11-09T05:24:48;23.20;40.80
37868;DHT22;24011;48.880;9.190;2022-11-09T05:33:29;23.30;41.00
37868;DHT22;24011;48.880;9.190;2022-11-09T05:46:06;23.20;41.10
37868;DHT22;24011;48.880;9.190;2022-11-09T05:49:59;23.20;41.20
37868;DHT22;24011;48.880;9.190;2022-11-09T07:20:44;23.30;42.40
37868;DHT22;24011;48.880;9.190;2022-11-09T07:23:39;23.40;42.30
37868;DHT22;24011;48.880;9.190;2022-11-09T07:26:46;23.30;42.30
37868;DHT22;24011;48.880;9.190;2022-11-09T07:30:38;23.40;42.40
37868;DHT22;24011;48.880;9.190;2022-11-09T07:59:05;23.50;42.80
37868;DHT22;24011;48.880;9.190;2022-11-09T08:01:52;23.50;42.80
37868;DHT22;24011;48.880;9.190;2022-11-09T08:04:49;23.50;42.70
37868;DHT22;24011;48.880;9.190;2022-11-09T08:07:53;23.50;42.80
37868;DHT22;24011;48.880;9.190;2022-11-09T08:10:54;23.50;42.90
37868;DHT22;24011;48.880;9.190;2022-11-09T08:14:50;23.50;42.90
37868;DHT22;24011;48.880;9.190;2022-11-09T08:17:51;23.50;43.10
37868;DHT22;24011;48.880;9.190;2022-11-09T08:20:53;23.50;42.80
37868;DHT22;24011;48.880;9.190;2022-11-09T08:24:07;23.60;43.00
37868;DHT22;24011;48.880;9.190;2022-11-09T08:27:05;23.50;42.90
37868;DHT22;24011;48.880;9.190;2022-11-09T08:30:32;23.60;43.00
37868;DHT22;24011;48.880;9.190;2022-11-09T08:33:30;23.60;43.00
37868;DHT22;24011;48.880;9.190;2022-11-09T08:36:45;23.60;43.10
37868;DHT22;24011;48.880;9.190;2022-11-09T08:40:02;23.60;43.20
37868;DHT22;24011;48.880;9.190;2022-11-09T08:43:06;23.50;43.10
37868;DHT22;24011;48.880;9.190;2022-11-09T08:46:14;23.50;43.30
37868;DHT22;24011;48.880;9.190;2022-11-09T08:49:14;23.60;43.30
37868;DHT22;24011;48.880;9.190;2022-11-09T08:52:11;23.60;43.40
37868;DHT22;24011;48.880;9.190;2022-11-09T08:54:54;23.50;43.40
37868;DHT22;24011;48.880;9.190;2022-11-09T08:58:06;23.60;43.50
37868;DHT22;24011;48.880;9.190;2022-11-09T09:01:29;23.60;43.40
37868;DHT22;24011;48.880;9.190;2022-11-09T09:04:30;23.70;43.50
37868;DHT22;24011;48.880;9.190;2022-11-09T09:51:12;24.00;43.90
37868;DHT22;24011;48.880;9.190;2022-11-09T12:08:31;25.10;43.20
37868;DHT22;24011;48.880;9.190;2022-11-09T12:21:49;25.00;43.80
37868;DHT22;24011;48.880;9.190;2022-11-09T12:30:01;25.00;43.70
37868;DHT22;24011;48.880;9.190;2022-11-09T12:34:33;25.00;43.70
37868;DHT22;24011;48.880;9.190;2022-11-09T13:04:14;25.20;43.70
37868;DHT22;24011;48.880;9.190;2022-11-09T15:04:22;25.10;44.20
37868;DHT22;24011;48.880;9.190;2022-11-09T16:26:31;24.80;45.30
37868;DHT22;24011;48.880;9.190;2022-11-09T16:39:37;24.90;45.10
37868;DHT22;24011;48.880;9.190;2022-11-09T16:55:13;24.90;45.00
37868;DHT22;24011;48.880;9.190;2022-11-09T17:25:49;24.80;45.30
37868;DHT22;24011;48.880;9.190;2022-11-09T18:42:50;24.50;45.20
37868;DHT22;24011;48.880;9.190;2022-11-09T18:47:08;24.50;45.00
37868;DHT22;24011;48.880;9.190;2022-11-09T18:51:26;24.60;44.90
37868;DHT22;24011;48.880;9.190;2022-11-09T18:56:02;24.60;44.80
37868;DHT22;24011;48.880;9.190;2022-11-09T19:24:10;24.40;44.90
37868;DHT22;24011;48.880;9.190;2022-11-09T19:27:38;24.40;44.90
37868;DHT22;24011;48.880;9.190;2022-11-09T19:31:10;24.40;44.90
37868;DHT22;24011;48.880;9.190;2022-11-09T19:34:40;24.40;44.90
37868;DHT22;24011;48.880;9.190;2022-11-09T19:38:16;24.40;44.90
37868;DHT22;24011;48.880;9.190;2022-11-09T19:41:56;24.40;44.80
37868;DHT22;24011;48.880;9.190;2022-11-09T19:45:26;24.40;44.90
37868;DHT22;24011;48.880;9.190;2022-11-09T19:48:56;24.40;44.80
37868;DHT22;24011;48.880;9.190;2022-11-09T19:52:26;24.50;44.80
37868;DHT22;24011;48.880;9.190;2022-11-09T19:55:56;24.50;44.80
37868;DHT22;24011;48.880;9.190;2022-11-09T19:59:38;24.50;44.80
37868;DHT22;24011;48.880;9.190;2022-11-09T20:03:04;24.40;44.80
37868;DHT22;24011;48.880;9.190;2022-11-09T20:06:38;24.40;44.80
37868;DHT22;24011;48.880;9.190;2022-11-09T20:10:02;24.40;44.80
37868;DHT22;24011;48.880;9.190;2022-11-09T20:13:39;24.40;44.80
37868;DHT22;24011;48.880;9.190;2022-11-09T20:17:11;24.40;44.80
37868;DHT22;24011;48.880;9.190;2022-11-09T20:20:41;24.40;44.90
37868;DHT22;24011;48.880;9.190;2022-11-09T20:24:03;24.40;45.00
37868;DHT22;24011;48.880;9.190;2022-11-09T20:27:33;24.40;45.00
37868;DHT22;24011;48.880;9.190;2022-11-09T20:30:58;24.40;45.00
37868;DHT22;24011;48.880;9.190;2022-11-09T20:34:39;24.40;45.00
37868;DHT22;24011;48.880;9.190;2022-11-09T20:38:09;24.40;45.00
37868;DHT22;24011;48.880;9.190;2022-11-09T20:41:35;24.30;44.90
37868;DHT22;24011;48.880;9.190;2022-11-09T20:44:58;24.40;45.00
37868;DHT22;24011;48.880;9.190;2022-11-09T20:48:27;24.40;44.90
37868;DHT22;24011;48.880;9.190;2022-11-09T20:52:09;24.40;44.90
37868;DHT22;24011;48.880;9.190;2022-11-09T20:55:39;24.40;44.90
37868;DHT22;24011;48.880;9.190;2022-11-09T20:59:11;24.40;44.90
37868;DHT22;24011;48.880;9.190;2022-11-09T21:02:39;24.40;44.80
37868;DHT22;24011;48.880;9.190;2022-11-09T21:38:31;24.20;45.00
37868;DHT22;24011;48.880;9.190;2022-11-09T21:41:35;24.20;45.10
37868;DHT22;24011;48.880;9.190;2022-11-09T21:44:49;24.20;45.00
37868;DHT22;24011;48.880;9.190;2022-11-09T21:48:13;24.20;45.10
37868;DHT22;24011;48.880;9.190;2022-11-09T21:51:47;24.20;45.10
37868;DHT22;24011;48.880;9.190;2022-11-09T21:55:13;24.20;45.70
37868;DHT22;24011;48.880;9.190;2022-11-09T21:58:43;24.20;45.10
37868;DHT22;24011;48.880;9.190;2022-11-09T22:02:07;24.20;45.10
37868;DHT22;24011;48.880;9.190;2022-11-09T22:05:42;24.20;45.10
37868;DHT22;24011;48.880;9.190;2022-11-09T22:09:01;24.20;45.10
37868;DHT22;24011;48.880;9.190;2022-11-09T22:13:01;24.10;45.10
37868;DHT22;24011;48.880;9.190;2022-11-09T22:16:25;24.20;45.20
37868;DHT22;24011;48.880;9.190;2022-11-09T22:19:49;24.10;45.10
37868;DHT22;24011;48.880;9.190;2022-11-09T22:23:13;24.10;45.10
37868;DHT22;24011;48.880;9.190;2022-11-09T22:26:43;24.10;45.20
37868;DHT22;24011;48.880;9.190;2022-11-09T22:30:12;24.10;45.20
37868;DHT22;24011;48.880;9.190;2022-11-09T22:33:43;24.10;45.20
37868;DHT22;24011;48.880;9.190;2022-11-09T22:37:06;24.10;45.20
37868;DHT22;24011;48.880;9.190;2022-11-09T22:40:42;24.10;45.20
37868;DHT22;24011;48.880;9.190;2022-11-09T22:44:01;24.10;45.30
37868;DHT22;24011;48.880;9.190;2022-11-09T22:47:43;24.10;45.20
37868;DHT22;24011;48.880;9.190;2022-11-09T22:51:02;24.10;45.20
37868;DHT22;24011;48.880;9.190;2022-11-09T22:54:36;24.10;45.30
37868;DHT22;24011;48.880;9.190;2022-11-09T22:58:00;24.10;45.30
37868;DHT22;24011;48.880;9.190;2022-11-09T23:01:24;24.10;45.30
37868;DHT22;24011;48.880;9.190;2022-11-09T23:04:31;24.00;45.30
37868;DHT22;24011;48.880;9.190;2022-11-09T23:07:39;24.00;45.40
37868;DHT22;24011;48.880;9.190;2022-11-09T23:10:48;24.00;45.40
37868;DHT22;24011;48.880;9.190;2022-11-09T23:14:24;24.00;45.40
37868;DHT22;24011;48.880;9.190;2022-11-09T23:17:50;24.00;45.40
37868;DHT22;24011;48.880;9.190;2022-11-09T23:21:33;24.00;45.30
37868;DHT22;24011;48.880;9.190;2022-11-09T23:25:32;24.00;45.30
37868;DHT22;24011;48.880;9.190;2022-11-09T23:30:20;24.00;45.40
37868;DHT22;24011;48.880;9.190;2022-11-09T23:35:08;24.00;45.30
37868;DHT22;24011;48.880;9.190;2022-11-09T23:55:50;23.90;45.30
